createdAt,value
2019-04-26T00:00:07.504Z,6.73
2019-04-26T00:02:46.109Z,6.37
2019-04-26T00:05:14.714Z,7.00
2019-04-26T00:07:43.806Z,6.80
2019-04-26T00:10:25.417Z,6.93
2019-04-26T00:13:01.221Z,7.23
2019-04-26T00:15:45.143Z,6.57
2019-04-26T00:18:14.718Z,7.97
2019-04-26T00:20:43.387Z,7.97
2019-04-26T00:23:12.115Z,7.57
2019-04-26T00:25:40.706Z,6.50
2019-04-26T00:28:10.259Z,6.70
2019-04-26T00:30:39.722Z,7.17
2019-04-26T00:33:08.349Z,6.50
2019-04-26T00:35:46.896Z,7.20
2019-04-26T00:38:07.269Z,7.00
2019-04-26T00:40:35.903Z,7.30
2019-04-26T00:43:04.553Z,7.27
2019-04-26T00:45:34.239Z,7.53
2019-04-26T00:48:02.847Z,7.53
2019-04-26T00:50:31.446Z,7.73
2019-04-26T00:53:00.461Z,7.63
2019-04-26T00:55:29.118Z,7.00
2019-04-26T00:57:57.719Z,7.20
2019-04-26T01:00:26.676Z,7.57
2019-04-26T01:02:56.338Z,7.50
2019-04-26T01:05:25.299Z,8.13
2019-04-26T01:07:56.055Z,7.10
2019-04-26T01:10:25.878Z,7.20
2019-04-26T01:12:54.827Z,7.33
2019-04-26T01:15:24.634Z,7.27
2019-04-26T01:17:53.595Z,7.20
2019-04-26T01:20:22.602Z,7.23
2019-04-26T01:22:51.346Z,7.17
2019-04-26T01:25:51.032Z,7.30
2019-04-26T01:28:29.343Z,7.17
2019-04-26T01:30:58.066Z,7.17
2019-04-26T01:33:26.754Z,7.23
2019-04-26T01:35:55.442Z,7.33
2019-04-26T01:38:24.074Z,7.20
2019-04-26T01:40:55.101Z,7.53
2019-04-26T01:43:32.757Z,7.73
2019-04-26T01:46:10.747Z,7.57
2019-04-26T01:48:50.159Z,8.13
2019-04-26T01:51:31.020Z,7.50
2019-04-26T01:53:59.623Z,7.83
2019-04-26T01:56:31.983Z,8.10
2019-04-26T01:59:00.757Z,8.73
2019-04-26T02:01:57.614Z,8.87
2019-04-26T02:04:31.971Z,7.93
2019-04-26T02:07:00.907Z,8.73
2019-04-26T02:09:30.518Z,8.37
2019-04-26T02:11:59.156Z,7.97
2019-04-26T02:14:28.953Z,7.40
2019-04-26T02:16:57.807Z,8.37
2019-04-26T02:19:27.420Z,8.00
2019-04-26T02:22:02.699Z,7.80
2019-04-26T02:24:34.436Z,7.33
2019-04-26T02:27:05.972Z,7.90
2019-04-26T02:29:34.766Z,9.07
2019-04-26T02:32:06.441Z,8.00
2019-04-26T02:34:37.584Z,8.00
2019-04-26T02:37:06.139Z,8.67
2019-04-26T02:39:37.758Z,8.30
2019-04-26T02:42:10.985Z,9.67
2019-04-26T02:44:48.337Z,8.53
2019-04-26T02:47:52.527Z,8.10
2019-04-26T02:50:30.669Z,8.83
2019-04-26T02:53:18.461Z,8.80
2019-04-26T02:56:07.399Z,8.97
2019-04-26T02:58:48.230Z,8.13
2019-04-26T03:01:16.913Z,9.17
2019-04-26T03:03:45.491Z,8.13
2019-04-26T03:06:14.235Z,8.03
2019-04-26T03:08:42.876Z,9.50
2019-04-26T03:11:17.907Z,8.80
2019-04-26T03:13:52.695Z,8.60
2019-04-26T03:16:51.210Z,9.37
2019-04-26T03:19:36.237Z,8.73
2019-04-26T03:22:48.659Z,10.33
2019-04-26T03:25:36.981Z,8.87
2019-04-26T03:28:48.411Z,9.87
2019-04-26T03:31:28.084Z,9.47
2019-04-26T03:34:06.474Z,10.50
2019-04-26T03:37:20.727Z,10.47
2019-04-26T03:39:57.518Z,10.63
2019-04-26T03:42:51.304Z,10.47
2019-04-26T03:45:35.172Z,10.60
2019-04-26T03:48:17.312Z,10.47
2019-04-26T03:50:55.676Z,10.27
2019-04-26T03:53:30.887Z,10.53
2019-04-26T03:56:26.388Z,10.40
2019-04-26T03:59:09.775Z,10.60
2019-04-26T04:01:44.978Z,11.00
2019-04-26T04:04:32.146Z,10.93
2019-04-26T04:07:04.672Z,10.83
2019-04-26T04:09:31.172Z,10.27
2019-04-26T04:12:11.466Z,11.03
2019-04-26T04:15:10.220Z,11.13
2019-04-26T04:17:50.187Z,10.30
2019-04-26T04:21:01.565Z,10.37
2019-04-26T04:24:02.602Z,10.10
2019-04-26T04:26:43.306Z,11.33
2019-04-26T04:29:46.495Z,10.13
2019-04-26T04:32:26.112Z,12.10
2019-04-26T04:34:56.958Z,11.50
2019-04-26T04:37:29.760Z,10.43
2019-04-26T04:40:13.933Z,11.40
2019-04-26T04:43:05.620Z,11.00
2019-04-26T04:46:07.726Z,10.87
2019-04-26T04:48:53.425Z,11.73
2019-04-26T04:51:36.105Z,11.70
2019-04-26T04:54:13.984Z,11.60
2019-04-26T04:57:46.448Z,11.93
2019-04-26T05:01:08.539Z,11.13
2019-04-26T05:03:54.673Z,11.00
2019-04-26T05:07:18.910Z,11.50
2019-04-26T05:10:27.527Z,11.63
2019-04-26T05:14:11.696Z,12.33
2019-04-26T05:17:42.177Z,11.27
2019-04-26T05:20:39.860Z,11.93
2019-04-26T05:24:24.471Z,11.10
2019-04-26T05:35:51.121Z,11.33
2019-04-26T05:39:03.846Z,12.10
2019-04-26T05:43:10.544Z,11.77
2019-04-26T05:46:28.373Z,11.53
2019-04-26T05:53:21.032Z,10.87
2019-04-26T06:15:39.733Z,10.33
2019-04-26T06:37:43.202Z,9.93
2019-04-26T06:44:58.291Z,10.40
2019-04-26T06:48:30.844Z,9.73
2019-04-26T06:53:11.147Z,9.53
2019-04-26T07:13:52.391Z,9.83
2019-04-26T07:21:07.212Z,10.17
2019-04-26T07:24:34.880Z,10.37
2019-04-26T07:27:33.998Z,9.87
2019-04-26T07:30:18.037Z,10.00
2019-04-26T07:33:25.747Z,9.63
2019-04-26T07:46:02.919Z,11.10
2019-04-26T08:48:27.595Z,5.70
2019-04-26T08:51:09.489Z,6.40
2019-04-26T10:46:55.732Z,4.28
2019-04-26T10:49:42.951Z,4.40
2019-04-26T10:52:30.367Z,4.97
2019-04-26T10:55:24.268Z,6.45
2019-04-26T10:57:54.960Z,5.60
2019-04-26T11:00:30.347Z,5.60
2019-04-26T11:03:00.040Z,6.00
2019-04-26T11:05:30.647Z,5.92
2019-04-26T11:07:59.556Z,5.12
2019-04-26T11:10:28.834Z,5.35
2019-04-26T11:12:57.763Z,4.45
2019-04-26T11:15:29.111Z,4.80
2019-04-26T11:17:58.048Z,4.58
2019-04-26T11:20:27.100Z,4.65
2019-04-26T11:22:56.691Z,5.00
2019-04-26T11:25:28.176Z,5.37
2019-04-26T11:27:57.675Z,4.90
2019-04-26T11:30:26.794Z,6.00
2019-04-26T11:32:55.972Z,5.85
2019-04-26T11:35:25.233Z,6.05
2019-04-26T11:37:55.176Z,6.20
2019-04-26T11:40:25.161Z,6.60
2019-04-26T11:42:54.678Z,7.50
2019-04-26T11:45:24.013Z,7.20
2019-04-26T11:47:56.110Z,7.53
2019-04-26T11:50:24.162Z,10.13
2019-04-26T11:52:53.273Z,9.48
2019-04-26T11:55:25.414Z,9.50
2019-04-26T11:57:53.709Z,8.20
2019-04-26T12:00:27.719Z,7.92
2019-04-26T12:02:56.448Z,8.03
2019-04-26T12:05:33.108Z,6.60
2019-04-26T12:08:05.964Z,5.50
2019-04-26T12:10:34.800Z,5.87
2019-04-26T12:13:05.924Z,7.83
2019-04-26T12:15:39.085Z,8.45
2019-04-26T12:18:09.773Z,8.38
2019-04-26T12:20:36.560Z,7.20
2019-04-26T12:23:05.139Z,6.90
2019-04-26T12:25:33.750Z,6.28
2019-04-26T12:28:06.115Z,6.25
2019-04-26T12:30:32.741Z,8.35
2019-04-26T12:33:01.319Z,7.00
2019-04-26T12:35:30.195Z,6.95
2019-04-26T12:37:59.262Z,6.50
2019-04-26T12:40:27.887Z,5.40
2019-04-26T12:42:56.548Z,5.35
2019-04-26T12:45:56.729Z,5.72
2019-04-26T12:48:25.369Z,5.60
2019-04-26T12:50:53.979Z,4.87
2019-04-26T12:53:26.703Z,4.50
2019-04-26T12:55:56.214Z,3.98
2019-04-26T12:58:23.570Z,3.33
2019-04-26T13:00:54.253Z,3.90
2019-04-26T13:03:24.964Z,4.12
2019-04-26T13:05:58.056Z,4.30
2019-04-26T13:08:25.713Z,3.35
2019-04-26T13:11:13.340Z,5.00
2019-04-26T13:13:53.287Z,4.87
2019-04-26T13:16:29.644Z,4.35
2019-04-26T13:19:03.575Z,3.60
2019-04-26T13:21:33.128Z,3.40
2019-04-26T13:24:10.224Z,4.08
2019-04-26T13:27:00.708Z,2.85
2019-04-26T13:29:31.195Z,2.65
2019-04-26T13:32:00.199Z,2.50
2019-04-26T13:34:29.100Z,2.45
2019-04-26T13:36:59.192Z,2.90
2019-04-26T13:39:28.452Z,2.75
2019-04-26T13:42:04.520Z,2.47
2019-04-26T13:44:45.449Z,2.42
2019-04-26T13:47:42.335Z,2.90
2019-04-26T13:50:16.176Z,3.30
2019-04-26T13:52:44.926Z,3.30
2019-04-26T13:55:13.664Z,2.67
2019-04-26T13:57:44.495Z,2.62
2019-04-26T14:00:19.934Z,2.40
2019-04-26T14:02:48.709Z,2.65
2019-04-26T14:05:17.316Z,2.55
2019-04-26T14:07:46.167Z,2.55
2019-04-26T14:10:14.761Z,3.10
2019-04-26T14:12:46.244Z,2.58
2019-04-26T14:15:13.772Z,2.90
2019-04-26T14:17:42.339Z,2.52
2019-04-26T14:20:11.061Z,2.52
2019-04-26T14:22:45.628Z,2.02
2019-04-26T14:25:17.424Z,2.62
2019-04-26T14:27:51.644Z,2.00
2019-04-26T14:30:20.592Z,2.35
2019-04-26T14:32:49.214Z,2.58
2019-04-26T14:35:17.864Z,2.50
2019-04-26T14:37:49.960Z,2.50
2019-04-26T14:40:17.803Z,3.17
2019-04-26T14:42:48.548Z,2.52
2019-04-26T14:45:23.642Z,2.60
2019-04-26T14:47:47.918Z,2.22
2019-04-26T14:50:17.005Z,2.67
2019-04-26T14:52:45.699Z,2.90
2019-04-26T14:55:16.658Z,2.65
2019-04-26T14:57:46.763Z,2.47
2019-04-26T15:00:16.705Z,2.50
2019-04-26T15:02:59.381Z,2.20
2019-04-26T15:05:38.237Z,2.40
2019-04-26T15:08:09.717Z,2.45
2019-04-26T15:10:45.739Z,2.55
2019-04-26T15:13:17.946Z,2.58
2019-04-26T15:15:39.986Z,2.55
2019-04-26T15:18:08.568Z,3.10
2019-04-26T15:20:37.173Z,3.12
2019-04-26T15:23:05.836Z,2.90
2019-04-26T15:25:36.707Z,3.58
2019-04-26T15:28:06.901Z,3.77
2019-04-26T15:30:43.297Z,3.77
2019-04-26T15:33:08.950Z,3.20
2019-04-26T15:35:36.149Z,3.35
2019-04-26T15:38:05.214Z,4.87
2019-04-26T15:41:16.267Z,4.03
2019-04-26T15:44:06.899Z,4.33
2019-04-26T15:46:55.586Z,3.60
2019-04-26T15:49:42.940Z,4.00
2019-04-26T15:52:11.805Z,3.77
2019-04-26T15:54:42.384Z,4.20
2019-04-26T15:57:12.301Z,4.03
2019-04-26T15:59:43.078Z,4.17
2019-04-26T16:02:12.500Z,4.22
2019-04-26T16:04:42.424Z,4.67
2019-04-26T16:07:16.655Z,3.42
2019-04-26T16:09:43.697Z,3.62
2019-04-26T16:12:13.438Z,2.98
2019-04-26T16:14:42.322Z,3.12
2019-04-26T16:17:12.455Z,2.70
2019-04-26T16:19:41.258Z,2.75
2019-04-26T16:22:09.879Z,2.50
2019-04-26T16:24:38.489Z,2.50
2019-04-26T16:27:07.226Z,2.58
2019-04-26T16:30:00.538Z,2.30
2019-04-26T16:32:52.677Z,2.40
2019-04-26T16:35:28.071Z,2.25
2019-04-26T16:37:53.222Z,2.60
2019-04-26T16:40:25.759Z,2.40
2019-04-26T16:42:57.002Z,2.62
2019-04-26T16:45:22.796Z,2.60
2019-04-26T16:47:52.658Z,2.95
2019-04-26T16:50:26.437Z,2.80
2019-04-26T16:52:52.336Z,2.98
2019-04-26T16:55:21.508Z,2.77
2019-04-26T16:57:57.335Z,2.70
2019-04-26T17:00:31.888Z,2.60
2019-04-26T17:02:52.832Z,2.72
2019-04-26T17:05:44.009Z,3.08
2019-04-26T17:07:53.888Z,2.60
2019-04-26T17:10:24.687Z,2.75
2019-04-26T17:12:54.410Z,2.77
2019-04-26T17:15:24.298Z,2.67
2019-04-26T17:17:53.456Z,2.50
2019-04-26T17:20:22.414Z,2.77
2019-04-26T17:23:00.856Z,2.10
2019-04-26T17:25:38.640Z,2.20
2019-04-26T17:28:07.313Z,2.00
2019-04-26T17:30:41.373Z,1.82
2019-04-26T17:33:06.315Z,2.00
2019-04-26T17:35:36.728Z,1.80
2019-04-26T17:38:05.800Z,2.17
2019-04-26T17:40:36.290Z,1.90
2019-04-26T17:43:05.345Z,1.90
2019-04-26T17:45:36.354Z,1.65
2019-04-26T17:48:06.517Z,1.85
2019-04-26T17:50:38.976Z,2.20
2019-04-26T17:53:10.549Z,2.33
2019-04-26T17:55:37.296Z,2.27
2019-04-26T17:58:12.074Z,2.17
2019-04-26T18:00:46.075Z,2.30
2019-04-26T18:03:10.598Z,2.00
2019-04-26T18:05:50.019Z,2.15
2019-04-26T18:08:31.531Z,2.05
2019-04-26T18:10:42.780Z,2.42
2019-04-26T18:13:16.160Z,1.98
2019-04-26T18:15:46.867Z,2.00
2019-04-26T18:18:34.237Z,1.77
2019-04-26T18:21:22.913Z,2.40
2019-04-26T18:23:56.071Z,1.90
2019-04-26T18:26:24.535Z,1.50
2019-04-26T18:28:55.220Z,1.80
2019-04-26T18:31:28.888Z,1.50
2019-04-26T18:33:54.878Z,1.22
2019-04-26T18:36:27.692Z,1.07
2019-04-26T18:38:54.983Z,1.47
2019-04-26T18:41:28.699Z,1.30
2019-04-26T18:43:59.834Z,1.00
2019-04-26T18:46:31.956Z,1.60
2019-04-26T18:49:00.632Z,1.50
2019-04-26T18:51:29.418Z,1.35
2019-04-26T18:54:14.438Z,1.60
2019-04-26T18:56:44.005Z,2.87
2019-04-26T18:59:15.299Z,1.50
2019-04-26T19:01:43.432Z,1.37
2019-04-26T19:04:13.593Z,1.40
2019-04-26T19:06:43.447Z,1.45
2019-04-26T19:09:12.343Z,1.12
2019-04-26T19:11:42.110Z,1.57
2019-04-26T19:14:49.088Z,1.20
2019-04-26T19:17:19.036Z,1.30
2019-04-26T19:20:05.840Z,1.35
2019-04-26T19:22:34.678Z,1.40
2019-04-26T19:25:03.500Z,1.40
2019-04-26T19:27:33.283Z,1.52
2019-04-26T19:30:04.353Z,1.55
2019-04-26T19:32:35.401Z,1.80
2019-04-26T19:35:07.080Z,1.60
2019-04-26T19:37:36.773Z,1.45
2019-04-26T19:40:12.353Z,1.72
2019-04-26T19:42:39.787Z,1.50
2019-04-26T19:45:17.089Z,1.60
2019-04-26T19:47:49.970Z,1.70
2019-04-26T19:50:49.004Z,1.90
2019-04-26T19:53:37.483Z,1.57
2019-04-26T19:56:24.515Z,2.08
2019-04-26T19:58:57.628Z,1.57
2019-04-26T20:01:24.820Z,1.75
2019-04-26T20:03:55.245Z,1.77
2019-04-26T20:06:26.638Z,1.65
2019-04-26T20:08:58.982Z,1.98
2019-04-26T20:11:29.103Z,2.12
2019-04-26T20:13:59.266Z,1.90
2019-04-26T20:16:28.105Z,2.00
2019-04-26T20:18:58.369Z,2.20
2019-04-26T20:21:27.167Z,2.25
2019-04-26T20:23:56.113Z,2.30
2019-04-26T20:26:24.930Z,2.10
2019-04-26T20:28:55.761Z,2.22
2019-04-26T20:31:47.548Z,2.10
2019-04-26T20:34:18.160Z,2.42
2019-04-26T20:36:47.739Z,2.10
2019-04-26T20:39:16.565Z,2.30
2019-04-26T20:41:45.663Z,2.23
2019-04-26T20:44:14.610Z,2.10
2019-04-26T20:46:43.458Z,2.62
2019-04-26T20:49:12.116Z,2.77
2019-04-26T20:51:46.138Z,2.65
2019-04-26T20:54:16.245Z,2.60
2019-04-26T20:56:42.172Z,2.20
2019-04-26T20:59:11.837Z,2.65
2019-04-26T21:01:43.682Z,2.53
2019-04-26T21:04:12.246Z,2.58
2019-04-26T21:06:41.409Z,2.50
2019-04-26T21:09:12.179Z,2.30
2019-04-26T21:11:41.268Z,2.35
2019-04-26T21:14:10.224Z,2.42
2019-04-26T21:16:39.198Z,2.60
2019-04-26T21:19:07.885Z,2.80
2019-04-26T21:21:36.517Z,3.07
2019-04-26T21:24:06.162Z,2.70
2019-04-26T21:26:56.722Z,2.67
2019-04-26T21:29:31.919Z,2.70
2019-04-26T21:32:37.045Z,2.80
2019-04-26T21:35:08.851Z,3.00
2019-04-26T21:37:43.054Z,2.90
2019-04-26T21:40:28.309Z,2.70
2019-04-26T21:42:59.579Z,2.80
2019-04-26T21:45:30.742Z,2.83
2019-04-26T21:47:57.837Z,2.70
2019-04-26T21:50:29.199Z,2.90
2019-04-26T21:52:58.529Z,2.87
2019-04-26T21:55:35.321Z,3.10
2019-04-26T21:57:57.692Z,2.90
2019-04-26T22:00:53.867Z,3.40
2019-04-26T22:03:23.397Z,3.03
2019-04-26T22:05:52.147Z,3.27
2019-04-26T22:08:24.978Z,3.33
2019-04-26T22:10:53.692Z,3.40
2019-04-26T22:13:33.170Z,3.40
2019-04-26T22:16:29.358Z,3.57
2019-04-26T22:19:03.846Z,3.50
2019-04-26T22:21:38.594Z,3.43
2019-04-26T22:24:16.276Z,3.60
2019-04-26T22:26:48.051Z,3.60
2019-04-26T22:29:16.843Z,3.77
2019-04-26T22:31:45.867Z,3.50
2019-04-26T22:34:14.510Z,3.40
2019-04-26T22:36:43.885Z,3.33
2019-04-26T22:39:18.324Z,3.43
2019-04-26T22:41:47.020Z,3.27
2019-04-26T22:44:24.924Z,3.33
2019-04-26T22:47:05.362Z,3.57
2019-04-26T22:49:35.046Z,3.00
2019-04-26T22:52:06.323Z,3.40
2019-04-26T22:54:37.656Z,3.40
2019-04-26T22:57:08.192Z,3.60
2019-04-26T22:59:38.142Z,3.63
2019-04-26T23:02:10.212Z,3.87
2019-04-26T23:04:38.853Z,3.70
2019-04-26T23:07:09.315Z,3.37
2019-04-26T23:09:37.997Z,3.87
2019-04-26T23:12:25.092Z,4.00
2019-04-26T23:15:07.162Z,3.53
2019-04-26T23:18:13.727Z,3.80
2019-04-26T23:21:03.575Z,4.33
2019-04-26T23:23:32.407Z,3.70
2019-04-26T23:26:02.256Z,3.93
2019-04-26T23:28:34.341Z,3.93
2019-04-26T23:31:07.914Z,4.53
2019-04-26T23:33:33.814Z,4.07
2019-04-26T23:36:03.265Z,3.80
2019-04-26T23:38:36.081Z,4.00
2019-04-26T23:41:06.910Z,4.00
2019-04-26T23:43:32.740Z,4.30
2019-04-26T23:46:01.354Z,4.00
2019-04-26T23:48:30.012Z,4.87
2019-04-26T23:50:59.961Z,4.80
2019-04-26T23:53:29.008Z,4.97
2019-04-26T23:55:57.586Z,4.40
2019-04-26T23:58:26.178Z,4.97
